Time;durP1;ratioP1;P1;durP2;ratioP2;P2;SDS_P1;SDS_P2;PMS_P1;PMS_P2;Temp;Humidity;BMP_temperature;BMP_pressure;BME280_temperature;BME280_humidity;BME280_pressure;Samples;Min_cycle;Max_cycle;Signal;HPM_P1;HPM_P2
2023/10/18 00:00:25;;;;;;;8.17;5.27;;;;;;;9.93;100.00;95363.47;4993522;28;20240;-83
2023/10/18 00:02:52;;;;;;;9.13;5.27;;;;;;;9.92;100.00;95364.44;4998751;28;20890;-84
2023/10/18 00:05:18;;;;;;;8.23;5.30;;;;;;;9.86;100.00;95363.38;5032669;28;20237;-85
2023/10/18 00:07:44;;;;;;;9.17;5.80;;;;;;;9.90;100.00;95348.94;5012952;28;20796;-83
2023/10/18 00:10:10;;;;;;;12.63;6.30;;;;;;;9.94;100.00;95352.00;4996926;28;20274;-85
2023/10/18 00:12:37;;;;;;;11.60;6.23;;;;;;;10.00;100.00;95351.25;4995800;28;20292;-82
2023/10/18 00:15:05;;;;;;;11.57;6.30;;;;;;;9.94;100.00;95352.00;5011375;28;20237;-84
2023/10/18 00:17:31;;;;;;;15.43;6.93;;;;;;;9.84;100.00;95356.72;5001695;28;20690;-84
2023/10/18 00:19:57;;;;;;;12.50;6.60;;;;;;;9.82;100.00;95345.63;4998034;28;20235;-86
2023/10/18 00:22:22;;;;;;;11.03;6.63;;;;;;;9.79;100.00;95351.25;4996124;28;20299;-80
2023/10/18 00:24:48;;;;;;;11.53;6.43;;;;;;;9.79;100.00;95352.03;5027916;28;20237;-82
2023/10/18 00:27:14;;;;;;;11.43;6.30;;;;;;;9.82;100.00;95350.84;5010668;28;20794;-83
2023/10/18 00:29:39;;;;;;;13.70;6.87;;;;;;;9.84;100.00;95346.28;5044320;28;20228;-86
2023/10/18 00:32:05;;;;;;;11.33;6.37;;;;;;;9.90;100.00;95332.44;5009827;28;20934;-84
2023/10/18 00:34:32;;;;;;;10.80;6.13;;;;;;;9.88;100.00;95342.28;5011744;28;20229;-83
2023/10/18 00:36:59;;;;;;;11.57;6.17;;;;;;;9.86;100.00;95333.81;5013770;28;20226;-81
2023/10/18 00:39:27;;;;;;;12.23;6.20;;;;;;;9.90;100.00;95335.88;5030650;28;20236;-82
2023/10/18 00:42:23;;;;;;;11.40;6.00;;;;;;;9.96;100.00;95337.75;5027379;28;20233;-70
2023/10/18 00:44:41;;;;;;;11.13;5.80;;;;;;;9.98;100.00;95335.75;5017415;28;20229;-84
2023/10/18 00:47:08;;;;;;;11.83;5.77;;;;;;;9.92;100.00;95328.66;5015038;28;20229;-83
2023/10/18 00:49:35;;;;;;;9.90;5.47;;;;;;;9.89;100.00;95326.41;4998070;28;20230;-84
2023/10/18 00:52:00;;;;;;;9.20;5.30;;;;;;;9.85;100.00;95324.34;5015051;28;20737;-84
2023/10/18 00:54:26;;;;;;;7.80;5.30;;;;;;;9.87;100.00;95319.75;4995901;28;20245;-86
2023/10/18 00:56:51;;;;;;;10.43;5.30;;;;;;;9.86;100.00;95323.38;5012939;28;20237;-84
2023/10/18 00:59:26;;;;;;;8.13;5.33;;;;;;;9.90;100.00;95333.25;4996323;28;20236;-84
2023/10/18 01:01:59;;;;;;;9.67;5.67;;;;;;;9.84;100.00;95330.59;5030372;28;20335;-84
2023/10/18 01:04:28;;;;;;;9.97;5.87;;;;;;;9.96;100.00;95332.50;5012369;28;20713;-84
2023/10/18 01:06:57;;;;;;;9.93;6.00;;;;;;;9.89;100.00;95338.66;5031172;28;20941;-83
2023/10/18 01:09:26;;;;;;;12.57;6.50;;;;;;;9.93;100.00;95338.13;4987259;28;20241;-86
2023/10/18 01:11:52;;;;;;;11.97;7.10;;;;;;;9.92;100.00;95336.50;5033218;28;20241;-84
2023/10/18 01:14:18;;;;;;;14.50;7.60;;;;;;;9.99;100.00;95331.34;5018513;28;20247;-81
2023/10/18 01:16:44;;;;;;;13.37;7.23;;;;;;;10.01;100.00;95329.34;5030970;28;20267;-83
2023/10/18 01:19:11;;;;;;;12.47;7.83;;;;;;;10.06;100.00;95314.72;5028766;28;20252;-84
2023/10/18 01:21:36;;;;;;;14.80;8.50;;;;;;;10.02;100.00;95315.28;4998783;28;20728;-81
2023/10/18 01:24:04;;;;;;;14.20;8.47;;;;;;;10.08;100.00;95319.75;5028632;28;20222;-84
2023/10/18 01:26:31;;;;;;;16.13;7.73;;;;;;;10.00;100.00;95323.31;5010292;28;20316;-83
2023/10/18 01:28:59;;;;;;;14.40;8.70;;;;;;;10.05;100.00;95325.38;5021423;28;20244;-82
2023/10/18 01:31:25;;;;;;;13.83;8.37;;;;;;;10.12;100.00;95324.47;4996916;28;20237;-82
2023/10/18 01:33:51;;;;;;;17.87;9.17;;;;;;;10.06;100.00;95324.38;4997130;28;20291;-83
2023/10/18 01:36:17;;;;;;;14.83;8.73;;;;;;;10.10;100.00;95323.81;4996326;28;20233;-82
2023/10/18 01:38:48;;;;;;;15.67;9.20;;;;;;;10.14;100.00;95319.88;5020686;28;20244;-82
2023/10/18 01:41:37;;;;;;;18.73;9.80;;;;;;;10.20;100.00;95323.53;5001374;28;20233;-83
2023/10/18 01:44:07;;;;;;;15.63;8.97;;;;;;;10.18;100.00;95322.91;5034399;28;20240;-82
2023/10/18 01:46:45;;;;;;;16.27;9.43;;;;;;;10.21;100.00;95326.94;5019344;28;20324;-84
2023/10/18 01:49:13;;;;;;;19.40;9.40;;;;;;;10.19;100.00;95321.09;5009254;28;20724;-82
2023/10/18 01:51:42;;;;;;;17.70;9.67;;;;;;;10.16;100.00;95324.91;5018003;28;20324;-81
2023/10/18 01:54:12;;;;;;;18.70;10.27;;;;;;;10.19;100.00;95321.91;5031459;28;20237;-82
2023/10/18 01:56:41;;;;;;;18.17;9.97;;;;;;;10.17;100.00;95323.91;5018360;28;20232;-82
2023/10/18 01:59:08;;;;;;;21.00;10.47;;;;;;;10.12;100.00;95321.88;5014993;28;20232;-83
2023/10/18 02:01:34;;;;;;;18.83;10.27;;;;;;;10.12;100.00;95334.13;5050248;28;20657;-82
2023/10/18 02:04:00;;;;;;;19.23;10.40;;;;;;;10.08;100.00;95331.03;5018761;28;20260;-82
2023/10/18 02:06:27;;;;;;;19.00;10.23;;;;;;;10.07;100.00;95339.06;5029642;28;20252;-82
2023/10/18 02:08:52;;;;;;;19.13;10.70;;;;;;;10.12;100.00;95337.56;4999728;28;20279;-83
2023/10/18 02:11:18;;;;;;;20.60;11.23;;;;;;;10.26;100.00;95337.66;5029110;28;20240;-82
2023/10/18 02:13:44;;;;;;;20.20;10.67;;;;;;;10.18;100.00;95333.38;5014180;28;20224;-82
2023/10/18 02:16:15;;;;;;;18.87;10.10;;;;;;;10.10;100.00;95339.50;5015864;28;20226;-82
2023/10/18 02:18:41;;;;;;;13.70;7.27;;;;;;;10.10;100.00;95338.72;5011465;28;20378;-68
2023/10/18 02:21:07;;;;;;;11.13;7.33;;;;;;;10.12;100.00;95334.13;5015101;28;20327;-70
2023/10/18 02:23:36;;;;;;;13.77;7.50;;;;;;;10.15;100.00;95338.97;5047305;28;20237;-69
2023/10/18 02:26:09;;;;;;;10.67;6.90;;;;;;;10.14;100.00;95330.34;5014091;28;20750;-70
2023/10/18 02:28:36;;;;;;;11.23;7.00;;;;;;;10.13;100.00;95336.53;5015522;28;20230;-69
2023/10/18 02:31:10;;;;;;;11.37;7.03;;;;;;;9.99;100.00;95340.00;5048433;28;20233;-69
2023/10/18 02:33:36;;;;;;;11.50;6.63;;;;;;;9.96;100.00;95331.69;5017666;28;20229;-69
2023/10/18 02:36:06;;;;;;;10.83;6.67;;;;;;;9.99;100.00;95334.75;5015540;28;20235;-69
2023/10/18 02:38:34;;;;;;;13.17;7.17;;;;;;;10.08;100.00;95330.22;5010742;28;20639;-69
2023/10/18 02:41:04;;;;;;;11.87;7.17;;;;;;;10.07;100.00;95333.84;5019641;28;20225;-70
2023/10/18 02:43:30;;;;;;;11.60;7.03;;;;;;;9.92;100.00;95340.91;5014770;28;20341;-70
2023/10/18 02:45:55;;;;;;;11.67;7.60;;;;;;;9.92;100.00;95336.50;5017351;28;20240;-70
2023/10/18 02:48:24;;;;;;;12.67;7.80;;;;;;;10.00;100.00;95332.97;5012138;28;20253;-69
2023/10/18 02:50:51;;;;;;;11.30;7.17;;;;;;;10.04;100.00;95331.59;5032649;28;20299;-70
2023/10/18 02:53:17;;;;;;;12.07;7.20;;;;;;;10.00;100.00;95331.16;5012224;28;20624;-69
2023/10/18 02:55:58;;;;;;;10.60;6.83;;;;;;;9.91;100.00;95331.47;5016926;28;20245;-69
2023/10/18 02:58:28;;;;;;;11.73;6.77;;;;;;;9.98;100.00;95322.66;5013647;28;20714;-70
2023/10/18 03:00:54;;;;;;;10.80;6.57;;;;;;;9.94;100.00;95333.69;5012650;28;20232;-69
2023/10/18 03:03:22;;;;;;;11.50;6.53;;;;;;;9.91;100.00;95323.63;5003247;28;20233;-69
2023/10/18 03:05:48;;;;;;;9.13;6.27;;;;;;;9.87;100.00;95324.97;5028653;28;20231;-69
2023/10/18 03:08:13;;;;;;;11.20;6.50;;;;;;;9.91;100.00;95323.63;4996885;28;20229;-68
2023/10/18 03:10:43;;;;;;;10.20;6.10;;;;;;;9.85;100.00;95326.97;5019076;28;20237;-70
2023/10/18 03:13:11;;;;;;;9.47;6.50;;;;;;;9.82;100.00;95325.53;5012845;28;20232;-69
2023/10/18 03:15:49;;;;;;;9.07;6.13;;;;;;;9.89;100.00;95325.59;4997345;28;20988;-69
2023/10/18 03:18:17;;;;;;;10.37;6.60;;;;;;;9.89;100.00;95321.19;5006490;28;20283;-70
2023/10/18 03:20:43;;;;;;;10.83;6.50;;;;;;;9.90;100.00;95309.75;5000238;28;20257;-69
2023/10/18 03:23:08;;;;;;;8.83;6.20;;;;;;;9.89;100.00;95307.28;4997500;28;20236;-70
2023/10/18 03:25:34;;;;;;;8.87;6.43;;;;;;;9.89;100.00;95315.13;5028966;28;20221;-69
2023/10/18 03:28:12;;;;;;;12.10;6.60;;;;;;;9.93;100.00;95316.41;4996404;28;20260;-69
2023/10/18 03:30:44;;;;;;;9.47;6.33;;;;;;;9.95;100.00;95315.22;5028377;28;20254;-69
2023/10/18 03:33:12;;;;;;;10.50;6.80;;;;;;;9.88;100.00;95311.72;5014659;28;20260;-70
2023/10/18 03:35:43;;;;;;;8.40;6.10;;;;;;;9.94;100.00;95308.34;5014644;28;20259;-69
2023/10/18 03:38:30;;;;;;;8.93;6.40;;;;;;;9.93;100.00;95308.56;5014937;28;20232;-69
2023/10/18 03:40:58;;;;;;;9.90;6.43;;;;;;;9.95;100.00;95293.50;5030897;28;20215;-69
2023/10/18 03:43:32;;;;;;;11.23;6.73;;;;;;;9.96;100.00;95295.09;5031183;28;20324;-69
2023/10/18 03:46:29;;;;;;;9.60;6.40;;;;;;;9.97;100.00;95294.09;5012320;28;20972;-69
2023/10/18 03:49:01;;;;;;;10.30;6.73;;;;;;;9.85;100.00;95299.03;5033280;28;20228;-69
2023/10/18 03:51:29;;;;;;;9.37;6.10;;;;;;;9.85;100.00;95311.28;5017858;28;20622;-69
2023/10/18 03:53:55;;;;;;;11.17;6.63;;;;;;;9.74;100.00;95309.16;5029358;28;20225;-70
2023/10/18 03:56:22;;;;;;;10.03;6.80;;;;;;;9.92;100.00;95312.16;5028876;28;20233;-68
2023/10/18 03:58:57;;;;;;;8.67;6.77;;;;;;;9.91;100.00;95302.72;5003073;28;20222;-69
2023/10/18 04:01:39;;;;;;;11.77;6.90;;;;;;;9.94;100.00;95290.06;5014231;28;20237;-68
2023/10/18 04:04:05;;;;;;;10.60;7.10;;;;;;;9.95;100.00;95283.84;5035133;28;20294;-69
2023/10/18 04:06:35;;;;;;;11.97;6.90;;;;;;;9.91;100.00;95281.78;5011061;28;20876;-70
2023/10/18 04:09:13;;;;;;;9.10;6.43;;;;;;;9.94;100.00;95289.25;5017332;28;20228;-70
2023/10/18 04:11:39;;;;;;;11.33;6.97;;;;;;;9.93;100.00;95292.88;5000907;28;20233;-69
2023/10/18 04:14:05;;;;;;;10.57;6.83;;;;;;;9.86;100.00;95284.16;4997446;28;20318;-70
2023/10/18 04:16:30;;;;;;;11.77;7.10;;;;;;;9.82;100.00;95290.72;5028176;28;20261;-69
2023/10/18 04:18:56;;;;;;;10.30;6.70;;;;;;;9.84;100.00;95283.53;5008683;28;20231;-69
2023/10/18 04:21:26;;;;;;;10.53;6.83;;;;;;;9.84;100.00;95281.69;5008511;28;20243;-69
2023/10/18 04:23:54;;;;;;;11.33;7.00;;;;;;;9.79;100.00;95288.50;5030658;28;20229;-69
2023/10/18 04:26:19;;;;;;;13.17;7.20;;;;;;;9.87;100.00;95291.78;5012273;28;20217;-69
2023/10/18 04:28:45;;;;;;;10.43;7.10;;;;;;;9.96;100.00;95289.84;5045848;28;20641;-69
2023/10/18 04:31:14;;;;;;;12.60;7.20;;;;;;;9.91;100.00;95292.25;5027555;28;20234;-67
2023/10/18 04:33:49;;;;;;;12.37;6.77;;;;;;;9.76;100.00;95294.91;5024588;28;20252;-68
2023/10/18 04:36:15;;;;;;;11.20;6.90;;;;;;;9.81;100.00;95292.56;4996490;28;20227;-68
2023/10/18 04:38:44;;;;;;;11.30;6.80;;;;;;;9.81;100.00;95287.31;5000973;28;20241;-69
2023/10/18 04:44:18;;;;;;;11.13;7.20;;;;;;;9.82;100.00;95293.34;5027851;28;20395;-69
2023/10/18 04:46:47;;;;;;;11.70;7.27;;;;;;;9.72;100.00;95295.47;5015795;28;20512;-69
2023/10/18 04:52:04;;;;;;;11.87;6.90;;;;;;;9.73;100.00;95297.88;4991920;28;20725;-69
2023/10/18 04:54:38;;;;;;;15.40;7.50;;;;;;;9.69;100.00;95294.03;5010546;28;20320;-69
2023/10/18 04:57:15;;;;;;;12.63;6.93;;;;;;;9.85;100.00;95298.22;5013912;28;20236;-68
2023/10/18 04:59:50;;;;;;;11.37;6.60;;;;;;;9.82;100.00;95312.44;5012816;28;20664;-68
2023/10/18 05:02:25;;;;;;;12.50;6.30;;;;;;;9.75;100.00;95308.16;4998785;28;20235;-68
2023/10/18 05:04:52;;;;;;;14.13;7.07;;;;;;;9.80;100.00;95327.50;4994009;28;20236;-71
2023/10/18 05:07:18;;;;;;;11.37;6.67;;;;;;;9.76;100.00;95326.28;5024449;28;20226;-69
2023/10/18 05:09:44;;;;;;;10.43;6.43;;;;;;;9.86;100.00;95333.81;5009918;28;20237;-69
2023/10/18 05:14:42;;;;;;;12.40;6.23;;;;;;;9.85;100.00;95343.47;5029368;28;20243;-69
2023/10/18 05:17:10;;;;;;;9.90;6.00;;;;;;;9.80;100.00;95347.63;4999353;28;20229;-69
2023/10/18 05:19:41;;;;;;;11.43;6.40;;;;;;;9.83;100.00;95360.31;5012739;28;20288;-69
2023/10/18 05:22:19;;;;;;;12.33;6.27;;;;;;;9.91;100.00;95355.00;5016376;28;20710;-69
2023/10/18 05:24:47;;;;;;;9.03;6.07;;;;;;;9.96;100.00;95355.22;4998928;28;20262;-69
2023/10/18 05:27:25;;;;;;;11.03;6.30;;;;;;;9.96;100.00;95369.13;5011913;28;20237;-69
2023/10/18 05:29:52;;;;;;;9.13;5.57;;;;;;;9.96;100.00;95376.13;5032235;28;20233;-80
2023/10/18 05:35:03;;;;;;;9.13;5.73;;;;;;;9.88;100.00;95381.50;5015773;28;20687;-83
2023/10/18 05:37:33;;;;;;;8.07;6.13;;;;;;;9.95;100.00;95380.59;5013816;28;20236;-81
2023/10/18 05:42:59;;;;;;;9.60;6.23;;;;;;;9.98;100.00;95376.78;4981986;28;20335;-83
2023/10/18 05:45:26;;;;;;;12.07;7.00;;;;;;;10.02;100.00;95376.25;5031950;28;20436;-83
2023/10/18 05:47:54;;;;;;;10.57;6.53;;;;;;;10.14;100.00;95372.19;5026270;28;20235;-85
2023/10/18 05:50:24;;;;;;;9.40;6.17;;;;;;;10.13;100.00;95367.09;5049018;28;20229;-83
2023/10/18 05:52:57;;;;;;;10.60;6.37;;;;;;;10.05;100.00;95365.38;5018548;28;20225;-82
2023/10/18 05:55:23;;;;;;;12.93;6.07;;;;;;;10.13;100.00;95364.50;5013397;28;20237;-82
2023/10/18 05:57:50;;;;;;;9.30;5.90;;;;;;;10.15;100.00;95367.72;5013092;28;20259;-83
2023/10/18 06:00:18;;;;;;;9.20;5.30;;;;;;;10.20;100.00;95357.53;5014051;28;20241;-82
2023/10/18 06:02:45;;;;;;;8.43;5.50;;;;;;;10.17;100.00;95365.78;5030281;28;20229;-83
2023/10/18 06:05:11;;;;;;;8.60;5.60;;;;;;;10.23;100.00;95369.44;5033086;28;20296;-83
2023/10/18 06:07:37;;;;;;;10.23;5.13;;;;;;;10.27;100.00;95365.47;4999954;28;20324;-83
2023/10/18 06:10:38;;;;;;;5.77;4.63;;;;;;;10.19;100.00;95370.81;5017005;28;20244;-83
2023/10/18 06:13:20;;;;;;;6.80;5.20;;;;;;;10.14;100.00;95366.13;5031224;28;20241;-83
2023/10/18 06:15:44;;;;;;;9.47;5.10;;;;;;;10.18;100.00;95367.38;5047904;28;20285;-83
2023/10/18 06:18:16;;;;;;;8.13;5.50;;;;;;;10.32;100.00;95373.56;5016311;28;20229;-83
2023/10/18 06:20:44;;;;;;;8.47;5.40;;;;;;;10.30;100.00;95372.91;5014464;28;20320;-83
2023/10/18 06:23:36;;;;;;;10.90;5.90;;;;;;;10.32;100.00;95370.94;5013814;28;20821;-84
2023/10/18 06:26:00;;;;;;;9.23;5.70;;;;;;;10.30;100.00;95373.72;5033463;28;20787;-83
2023/10/18 06:28:25;;;;;;;8.83;5.60;;;;;;;10.38;100.00;95372.81;4998100;28;20695;-81
2023/10/18 06:30:51;;;;;;;12.90;5.90;;;;;;;10.38;100.00;95368.38;5049286;28;20233;-78
2023/10/18 06:33:19;;;;;;;9.30;5.43;;;;;;;10.46;100.00;95365.63;5015521;28;20242;-80
2023/10/18 06:35:54;;;;;;;10.30;5.57;;;;;;;10.52;100.00;95379.78;4992379;28;20787;-80
2023/10/18 06:38:22;;;;;;;11.50;6.37;;;;;;;10.51;100.00;95378.97;5044298;28;20239;-82
2023/10/18 06:43:25;;;;;;;10.17;6.10;;;;;;;10.56;100.00;95384.44;5015470;28;20236;-80
2023/10/18 06:45:53;;;;;;;10.53;6.17;;;;;;;10.58;100.00;95387.69;5000671;28;20264;-80
2023/10/18 06:48:22;;;;;;;10.17;6.13;;;;;;;10.60;100.00;95383.06;5016824;28;20241;-79
2023/10/18 06:50:48;;;;;;;10.50;5.97;;;;;;;10.59;100.00;95385.88;5012049;28;20233;-80
2023/10/18 06:53:15;;;;;;;31.27;16.37;;;;;;;10.64;100.00;95386.94;5013104;28;20287;-81
2023/10/18 07:00:53;;;;;;;10.13;5.53;;;;;;;10.71;99.20;95384.38;5037208;28;20242;-81
2023/10/18 07:03:24;;;;;;;9.93;5.83;;;;;;;10.76;99.54;95390.69;5051863;28;20783;-81
2023/10/18 07:05:52;;;;;;;9.40;5.87;;;;;;;10.69;100.00;95389.00;5037003;28;20267;-81
2023/10/18 07:08:21;;;;;;;7.67;5.47;;;;;;;10.74;100.00;95400.53;5019784;28;20239;-80
2023/10/18 07:10:54;;;;;;;9.97;6.10;;;;;;;10.83;100.00;95399.38;5018271;28;20236;-81
2023/10/18 07:13:33;;;;;;;8.20;5.40;;;;;;;10.82;99.26;95397.75;5015574;28;20241;-80
2023/10/18 07:16:15;;;;;;;9.40;5.90;;;;;;;10.76;98.32;95395.91;5014645;28;20618;-80
2023/10/18 07:18:44;;;;;;;8.60;5.90;;;;;;;10.73;99.21;95400.69;5029392;28;20244;-80
2023/10/18 07:21:11;;;;;;;9.20;6.10;;;;;;;10.88;99.15;95405.88;5005201;28;20378;-79
2023/10/18 07:23:37;;;;;;;10.83;6.00;;;;;;;10.86;100.00;95395.59;5011253;28;20233;-81
2023/10/18 07:26:13;;;;;;;11.37;6.10;;;;;;;10.91;99.92;95402.88;5011439;28;20233;-82
2023/10/18 07:28:43;;;;;;;8.27;5.73;;;;;;;10.98;97.98;95408.97;4993829;28;20233;-80
2023/10/18 07:31:10;;;;;;;9.97;6.00;;;;;;;10.97;98.28;95404.72;5027486;28;20229;-79
2023/10/18 07:33:41;;;;;;;11.07;6.40;;;;;;;10.94;99.05;95405.91;5024817;28;20217;-81
2023/10/18 07:36:11;;;;;;;9.60;6.40;;;;;;;10.93;99.64;95404.31;5012543;28;20955;-81
2023/10/18 07:38:38;;;;;;;10.93;6.50;;;;;;;11.07;98.44;95392.94;5009150;28;20256;-80
2023/10/18 07:41:04;;;;;;;10.47;6.90;;;;;;;11.13;97.59;95392.16;5017829;28;20237;-79
2023/10/18 07:43:32;;;;;;;9.90;5.93;;;;;;;11.17;97.05;95396.03;5007777;28;20229;-79
2023/10/18 07:45:58;;;;;;;9.87;6.13;;;;;;;11.20;96.70;95395.63;5000740;28;20618;-81
2023/10/18 07:48:24;;;;;;;10.10;6.00;;;;;;;11.23;97.30;95392.63;4993870;28;20233;-80
2023/10/18 07:50:50;;;;;;;11.63;6.40;;;;;;;11.21;96.81;95391.19;5001128;28;20803;-81
2023/10/18 07:53:16;;;;;;;9.77;6.30;;;;;;;11.22;97.56;95387.59;5022297;28;20230;-80
2023/10/18 07:55:41;;;;;;;10.20;6.00;;;;;;;11.26;96.96;95378.34;5027880;28;20240;-81
2023/10/18 07:58:26;;;;;;;13.03;6.30;;;;;;;11.31;97.61;95387.25;5032969;28;20232;-82
2023/10/18 08:03:27;;;;;;;8.50;4.90;;;;;;;11.43;94.70;95390.13;5007989;28;20699;-82
2023/10/18 08:05:55;;;;;;;7.40;5.00;;;;;;;11.41;94.40;95385.09;5029937;28;20307;-82
2023/10/18 08:08:24;;;;;;;8.17;4.93;;;;;;;11.42;94.13;95389.31;5010845;28;20281;-80
2023/10/18 08:10:50;;;;;;;9.83;5.47;;;;;;;11.42;94.09;95385.88;4991584;28;20629;-81
2023/10/18 08:13:16;;;;;;;9.10;5.73;;;;;;;11.50;95.17;95390.97;5012423;28;20221;-80
2023/10/18 08:15:50;;;;;;;9.60;5.37;;;;;;;11.56;94.72;95382.31;5030343;28;20229;-78
2023/10/18 08:18:16;;;;;;;9.03;5.67;;;;;;;11.59;94.85;95389.81;5037404;28;20221;-81
2023/10/18 08:26:04;;;;;;;9.93;5.57;;;;;;;11.59;93.13;95399.47;5001024;28;20265;-81
2023/10/18 08:28:38;;;;;;;9.47;5.67;;;;;;;11.58;93.60;95395.25;5036164;28;20237;-80
2023/10/18 08:31:29;;;;;;;9.63;5.30;;;;;;;11.65;93.48;95393.47;5011827;28;20232;-80
2023/10/18 08:33:54;;;;;;;9.80;5.73;;;;;;;11.67;94.31;95396.72;5029850;28;20233;-80
2023/10/18 08:36:29;;;;;;;10.63;5.90;;;;;;;11.79;94.06;95401.25;5003241;28;20901;-81
2023/10/18 08:38:56;;;;;;;10.53;6.07;;;;;;;11.70;93.92;95404.22;5022980;28;20335;-80
2023/10/18 08:41:22;;;;;;;10.07;6.00;;;;;;;11.68;92.85;95401.78;5014427;28;20340;-80
2023/10/18 08:44:16;;;;;;;9.73;5.97;;;;;;;11.74;93.52;95397.59;5021295;28;20305;-81
2023/10/18 08:46:52;;;;;;;9.47;6.60;;;;;;;11.78;93.83;95397.00;5009773;28;20232;-80
2023/10/18 08:49:21;;;;;;;11.43;7.10;;;;;;;11.86;94.07;95401.28;5026718;28;20241;-79
2023/10/18 08:51:53;;;;;;;12.30;5.73;;;;;;;11.88;93.70;95409.75;5018718;28;20672;-79
2023/10/18 08:54:22;;;;;;;10.77;6.20;;;;;;;11.87;94.51;95406.31;4999891;28;20276;-80
2023/10/18 08:56:47;;;;;;;11.13;5.90;;;;;;;11.97;94.80;95406.75;5047627;28;20324;-80
2023/10/18 08:59:18;;;;;;;10.70;5.87;;;;;;;12.01;93.28;95405.34;5046915;28;20672;-79
2023/10/18 09:04:52;;;;;;;12.60;5.90;;;;;;;12.05;93.47;95411.84;4944444;28;20228;-82
2023/10/18 09:07:42;;;;;;;9.20;5.50;;;;;;;12.13;92.30;95413.50;4986025;28;20252;-80
2023/10/18 09:10:27;;;;;;;8.50;5.87;;;;;;;12.11;93.36;95411.06;5015681;28;20315;-80
2023/10/18 09:15:29;;;;;;;11.67;5.70;;;;;;;12.16;91.77;95416.53;5033082;28;20244;-80
2023/10/18 09:18:03;;;;;;;9.87;5.70;;;;;;;12.14;92.81;95426.41;5035080;28;20233;-80
2023/10/18 09:20:29;;;;;;;11.03;5.97;;;;;;;12.18;93.10;95416.31;4984893;28;20230;-80
2023/10/18 09:23:01;;;;;;;9.13;5.87;;;;;;;12.25;91.88;95416.34;5054600;28;20226;-81
2023/10/18 09:25:27;;;;;;;10.37;6.03;;;;;;;12.29;91.37;95422.81;5005821;28;20232;-80
2023/10/18 09:30:46;;;;;;;9.77;5.80;;;;;;;12.34;91.75;95423.84;5022136;28;20237;-82
2023/10/18 09:33:13;;;;;;;13.03;6.40;;;;;;;12.31;90.53;95421.63;5033798;28;20230;-80
2023/10/18 09:35:46;;;;;;;13.80;6.60;;;;;;;12.31;90.49;95412.94;5003203;28;20372;-82
2023/10/18 09:38:12;;;;;;;9.97;6.10;;;;;;;12.29;90.78;95414.94;5030557;28;20230;-82
2023/10/18 09:40:42;;;;;;;11.40;6.50;;;;;;;12.34;91.59;95415.97;5037612;28;20236;-81
2023/10/18 09:43:07;;;;;;;10.80;6.10;;;;;;;12.40;90.95;95401.25;5009425;28;20217;-69
2023/10/18 09:45:33;;;;;;;11.37;6.10;;;;;;;12.38;91.48;95404.06;5050317;28;20263;-69
2023/10/18 09:47:59;;;;;;;12.50;6.40;;;;;;;12.45;91.04;95407.53;5035366;28;20227;-69
2023/10/18 09:50:31;;;;;;;13.03;6.30;;;;;;;12.51;91.60;95400.69;5018254;28;20229;-70
2023/10/18 09:52:57;;;;;;;10.40;6.43;;;;;;;12.60;90.08;95402.09;5015111;28;20249;-69
2023/10/18 09:55:27;;;;;;;13.70;6.30;;;;;;;12.54;90.05;95395.00;5017322;28;20240;-69
2023/10/18 09:58:05;;;;;;;11.97;6.67;;;;;;;12.51;90.66;95390.16;5012568;28;20949;-69
2023/10/18 10:00:42;;;;;;;10.93;6.17;;;;;;;12.54;90.92;95387.13;5036540;28;20257;-70
2023/10/18 10:03:12;;;;;;;12.20;6.30;;;;;;;12.65;91.17;95386.56;5016644;28;20237;-68
2023/10/18 10:05:41;;;;;;;8.87;6.07;;;;;;;12.66;91.14;95388.16;5012647;28;20770;-69
2023/10/18 10:08:07;;;;;;;9.20;5.67;;;;;;;12.65;89.37;95378.66;5009117;28;20241;-69
2023/10/18 10:10:45;;;;;;;11.30;6.07;;;;;;;12.62;90.23;95381.69;5014590;28;20233;-69
2023/10/18 10:13:25;;;;;;;10.13;6.17;;;;;;;12.66;90.16;95378.47;5047832;28;20236;-69
2023/10/18 10:16:03;;;;;;;8.83;6.00;;;;;;;12.67;90.91;95374.84;5017364;28;20611;-70
2023/10/18 10:18:30;;;;;;;10.23;5.67;;;;;;;12.74;89.73;95370.41;5032201;28;20229;-69
2023/10/18 10:20:56;;;;;;;14.70;8.73;;;;;;;12.73;90.72;95370.59;5030029;28;20228;-69
2023/10/18 10:23:22;;;;;;;9.13;5.97;;;;;;;12.65;91.21;95368.16;5019409;28;20660;-70
2023/10/18 10:26:11;;;;;;;10.47;6.27;;;;;;;12.69;90.71;95364.13;5014285;28;20245;-69
2023/10/18 10:31:51;;;;;;;8.30;5.60;;;;;;;12.72;90.82;95356.66;4999265;28;20252;-69
2023/10/18 10:34:26;;;;;;;10.90;6.00;;;;;;;12.82;90.12;95351.00;5023767;28;20233;-69
2023/10/18 10:37:13;;;;;;;10.33;6.20;;;;;;;12.83;91.03;95349.97;5019419;28;20257;-70
2023/10/18 10:39:49;;;;;;;14.20;6.63;;;;;;;12.85;90.74;95342.69;5007839;28;20261;-69
2023/10/18 10:42:43;;;;;;;9.70;6.10;;;;;;;12.83;89.47;95350.78;5031583;28;20291;-69
2023/10/18 10:45:11;;;;;;;10.53;6.40;;;;;;;12.78;90.67;95355.84;5008498;28;20237;-69
2023/10/18 10:47:42;;;;;;;13.93;6.30;;;;;;;12.77;90.41;95345.56;5008783;28;20697;-69
2023/10/18 10:50:09;;;;;;;9.27;6.27;;;;;;;12.84;90.30;95347.16;5015619;28;20709;-69
2023/10/18 10:52:38;;;;;;;9.87;5.93;;;;;;;12.87;89.52;95353.03;4984679;28;20344;-69
2023/10/18 10:55:34;;;;;;;8.97;5.87;;;;;;;12.87;90.03;95351.22;5000658;28;20233;-69
2023/10/18 10:58:09;;;;;;;10.30;5.53;;;;;;;12.89;89.71;95356.25;5033795;28;20241;-69
2023/10/18 11:00:38;;;;;;;9.60;6.30;;;;;;;12.77;90.44;95354.25;5024884;28;20239;-68
2023/10/18 11:03:30;;;;;;;11.30;6.40;;;;;;;12.88;91.07;95350.19;5025055;28;20279;-82
2023/10/18 11:05:58;;;;;;;9.63;5.87;;;;;;;12.96;89.96;95351.81;5024861;28;20237;-81
2023/10/18 11:08:25;;;;;;;14.97;8.90;;;;;;;12.86;90.25;95349.59;4991624;28;20376;-81
2023/10/18 11:10:51;;;;;;;17.60;9.13;;;;;;;12.79;90.38;95346.97;4987585;28;20237;-81
2023/10/18 11:13:22;;;;;;;9.83;5.60;;;;;;;12.89;90.04;95345.75;5048008;28;20240;-80
2023/10/18 11:15:50;;;;;;;11.00;5.83;;;;;;;12.97;89.87;95348.97;5015102;28;20734;-81
2023/10/18 11:18:22;;;;;;;10.03;5.47;;;;;;;12.93;89.32;95342.50;5019375;28;20311;-81
2023/10/18 11:21:19;;;;;;;11.40;6.40;;;;;;;12.82;90.72;95345.75;5009832;28;20260;-80
2023/10/18 11:23:37;;;;;;;12.23;6.70;;;;;;;12.91;90.36;95344.53;5012538;28;20234;-81
2023/10/18 11:26:19;;;;;;;11.70;5.70;;;;;;;12.89;90.00;95356.25;5015086;28;20234;-80
2023/10/18 11:28:47;;;;;;;9.97;6.63;;;;;;;12.89;90.18;95346.56;5006918;28;20217;-80
2023/10/18 11:31:13;;;;;;;11.33;6.43;;;;;;;12.92;90.53;95342.72;5018400;28;20242;-81
2023/10/18 11:33:56;;;;;;;15.70;8.23;;;;;;;13.00;90.46;95345.94;5005869;28;20305;-81
2023/10/18 11:36:21;;;;;;;14.27;7.10;;;;;;;12.99;90.45;95346.94;5010784;28;20234;-80
2023/10/18 11:39:18;;;;;;;8.80;5.60;;;;;;;12.92;89.72;95342.72;5027152;28;20303;-81
2023/10/18 11:41:37;;;;;;;8.80;5.40;;;;;;;12.91;90.33;95346.34;5030404;28;20438;-80
2023/10/18 11:44:18;;;;;;;13.17;7.33;;;;;;;12.89;90.34;95338.69;5030133;28;20241;-81
2023/10/18 11:46:47;;;;;;;10.50;6.00;;;;;;;12.91;89.90;95336.66;5029305;28;20221;-79
2023/10/18 11:49:19;;;;;;;9.87;5.47;;;;;;;12.91;90.00;95328.78;5007925;28;20237;-80
2023/10/18 11:51:48;;;;;;;8.53;5.60;;;;;;;12.96;90.40;95323.72;5016578;28;20221;-80
2023/10/18 11:54:34;;;;;;;9.13;6.20;;;;;;;12.97;90.56;95322.69;5000427;28;20317;-80
2023/10/18 11:57:01;;;;;;;9.17;6.07;;;;;;;13.03;90.13;95332.41;5042590;28;20233;-80
2023/10/18 11:59:28;;;;;;;10.00;5.87;;;;;;;13.07;89.62;95336.25;5025092;28;20232;-81
2023/10/18 12:01:55;;;;;;;9.90;5.43;;;;;;;13.04;89.90;95326.09;5016861;28;20234;-80
2023/10/18 12:04:27;;;;;;;8.97;5.33;;;;;;;13.09;89.33;95331.59;5010920;28;20316;-79
2023/10/18 12:06:56;;;;;;;11.03;5.63;;;;;;;13.10;90.02;95333.22;5027488;28;20234;-82
2023/10/18 12:09:25;;;;;;;10.07;5.07;;;;;;;13.09;89.07;95330.78;5025698;28;20234;-80
2023/10/18 12:11:54;;;;;;;10.20;5.40;;;;;;;13.08;89.12;95334.44;5031014;28;20237;-80
2023/10/18 12:14:22;;;;;;;9.23;5.50;;;;;;;13.10;88.91;95332.41;5013542;28;20230;-80
2023/10/18 12:16:49;;;;;;;9.27;5.50;;;;;;;13.11;89.25;95331.41;5028583;28;20256;-80
2023/10/18 12:19:15;;;;;;;7.93;5.30;;;;;;;13.08;90.06;95332.63;5031978;28;20233;-78
2023/10/18 12:21:48;;;;;;;9.33;5.60;;;;;;;13.09;89.02;95336.03;5007948;28;20229;-81